Time;durP1;ratioP1;P1;durP2;ratioP2;P2;SDS_P1;SDS_P2;PMS_P1;PMS_P2;Temp;Humidity;BMP_temperature;BMP_pressure;BME280_temperature;BME280_humidity;BME280_pressure;Samples;Min_cycle;Max_cycle;Signal;HPM_P1;HPM_P2
2024/04/03 00:04:12;;;;;;;0.00;0.00;;;;;;;;;;31331266;28;20327;-75
2024/04/03 00:19:16;;;;;;;0.00;0.00;;;;;;;;;;31325199;28;20254;-75
2024/04/03 00:34:19;;;;;;;0.00;0.00;;;;;;;;;;31315665;28;20235;-75
2024/04/03 00:49:29;;;;;;;0.00;0.00;;;;;;;;;;31319335;28;20234;-76
2024/04/03 01:04:32;;;;;;;0.00;0.00;;;;;;;;;;31228616;28;20235;-76
2024/04/03 01:19:36;;;;;;;0.00;0.00;;;;;;;;;;31228861;28;20693;-76
2024/04/03 01:34:39;;;;;;;0.00;0.00;;;;;;;;;;31214851;28;20663;-76
2024/04/03 01:49:53;;;;;;;0.00;0.00;;;;;;;;;;31218486;28;20223;-76
2024/04/03 02:04:56;;;;;;;0.00;0.00;;;;;;;;;;31215630;28;20262;-76
2024/04/03 02:20:00;;;;;;;0.00;0.00;;;;;;;;;;31212197;28;20228;-76
2024/04/03 02:35:06;;;;;;;0.00;0.00;;;;;;;;;;31202337;28;20231;-76
2024/04/03 02:50:15;;;;;;;0.00;0.00;;;;;;;;;;31203837;28;20231;-76
2024/04/03 03:05:18;;;;;;;0.00;0.00;;;;;;;;;;31222270;28;20242;-75
2024/04/03 03:20:22;;;;;;;0.00;0.00;;;;;;;;;;31232798;28;20236;-75
2024/04/03 03:35:25;;;;;;;0.00;0.00;;;;;;;;;;31204615;28;21046;-76
2024/04/03 04:06:00;;;;;;;0.00;0.00;;;;;;;;;;31225516;28;20322;-76
2024/04/03 04:21:04;;;;;;;0.00;0.00;;;;;;;;;;31224930;28;20235;-75
2024/04/03 04:36:08;;;;;;;0.00;0.00;;;;;;;;;;31233802;28;20238;-75
2024/04/03 04:51:19;;;;;;;0.00;0.00;;;;;;;;;;31270898;28;20234;-75
2024/04/03 05:06:22;;;;;;;0.00;0.00;;;;;;;;;;31259260;28;20238;-76
2024/04/03 05:21:31;;;;;;;0.00;0.00;;;;;;;;;;31260714;28;20668;-75
2024/04/03 05:36:34;;;;;;;0.00;0.00;;;;;;;;;;31253164;28;20658;-75
2024/04/03 05:51:46;;;;;;;0.00;0.00;;;;;;;;;;31250587;28;20245;-75
2024/04/03 06:06:51;;;;;;;0.00;0.00;;;;;;;;;;31269132;28;20561;-75
2024/04/03 06:21:54;;;;;;;0.00;0.00;;;;;;;;;;31258013;28;20238;-75
2024/04/03 06:36:57;;;;;;;0.03;0.03;;;;;;;;;;31256658;28;20243;-76
2024/04/03 06:52:07;;;;;;;0.00;0.00;;;;;;;;;;31249974;28;20680;-75
2024/04/03 07:07:11;;;;;;;0.00;0.00;;;;;;;;;;31247733;28;20234;-75
2024/04/03 07:22:14;;;;;;;0.00;0.00;;;;;;;;;;31278905;28;21003;-76
2024/04/03 07:37:18;;;;;;;0.00;0.00;;;;;;;;;;31236811;28;20254;-75
2024/04/03 07:52:27;;;;;;;0.00;0.00;;;;;;;;;;31254412;28;20235;-75
2024/04/03 08:07:31;;;;;;;0.00;0.00;;;;;;;;;;31218382;28;20262;-75
2024/04/03 08:22:34;;;;;;;0.00;0.00;;;;;;;;;;31209302;28;20236;-75
2024/04/03 08:37:37;;;;;;;0.00;0.00;;;;;;;;;;31209922;28;20243;-75
2024/04/03 08:52:47;;;;;;;0.00;0.00;;;;;;;;;;31263074;28;20254;-76
2024/04/03 09:07:59;;;;;;;0.00;0.00;;;;;;;;;;31189600;28;20239;-75
2024/04/03 09:23:02;;;;;;;0.00;0.00;;;;;;;;;;31116324;28;21208;-75
2024/04/03 09:38:06;;;;;;;0.00;0.00;;;;;;;;;;31187097;28;20227;-75
2024/04/03 09:53:17;;;;;;;0.00;0.00;;;;;;;;;;31203324;28;20573;-75
2024/04/03 10:08:21;;;;;;;0.00;0.00;;;;;;;;;;31161034;28;20234;-75
2024/04/03 10:23:25;;;;;;;0.00;0.00;;;;;;;;;;31220943;28;20235;-75
2024/04/03 10:38:29;;;;;;;0.00;0.00;;;;;;;;;;31208633;28;20326;-75
2024/04/03 10:53:39;;;;;;;0.00;0.00;;;;;;;;;;31228220;28;20303;-75
2024/04/03 11:08:42;;;;;;;0.00;0.00;;;;;;;;;;31346948;28;20227;-75
2024/04/03 11:23:45;;;;;;;0.00;0.00;;;;;;;;;;31334025;28;20239;-75
2024/04/03 11:38:49;;;;;;;0.00;0.00;;;;;;;;;;31333952;28;20319;-76
2024/04/03 11:53:59;;;;;;;0.00;0.00;;;;;;;;;;31322409;28;20240;-76
2024/04/03 12:09:02;;;;;;;0.00;0.00;;;;;;;;;;31197279;28;20230;-76
2024/04/03 12:24:06;;;;;;;0.00;0.00;;;;;;;;;;31198875;28;20235;-76
2024/04/03 12:39:09;;;;;;;0.00;0.00;;;;;;;;;;31206586;28;20227;-76
2024/04/03 12:54:19;;;;;;;0.00;0.00;;;;;;;;;;31210574;28;20281;-75
2024/04/03 13:09:22;;;;;;;0.00;0.00;;;;;;;;;;31307026;28;20231;-76
2024/04/03 13:24:25;;;;;;;0.00;0.00;;;;;;;;;;31310489;28;20577;-76
2024/04/03 13:39:29;;;;;;;0.00;0.00;;;;;;;;;;31325656;28;20264;-75
2024/04/03 13:54:39;;;;;;;0.00;0.00;;;;;;;;;;31303963;28;20242;-76
2024/04/03 14:09:42;;;;;;;0.00;0.00;;;;;;;;;;31300742;28;20241;-75
2024/04/03 14:24:46;;;;;;;0.00;0.00;;;;;;;;;;31335260;28;20238;-76
2024/04/03 14:39:49;;;;;;;0.00;0.00;;;;;;;;;;31329954;28;20238;-76
2024/04/03 14:54:59;;;;;;;0.00;0.00;;;;;;;;;;31321466;28;20659;-75
2024/04/03 15:10:04;;;;;;;0.00;0.00;;;;;;;;;;31289670;28;20234;-76
2024/04/03 15:25:08;;;;;;;0.00;0.00;;;;;;;;;;31255370;28;20593;-76
2024/04/03 15:40:11;;;;;;;0.00;0.00;;;;;;;;;;31262919;28;20234;-76
2024/04/03 15:55:22;;;;;;;0.00;0.00;;;;;;;;;;31279383;28;20758;-77
2024/04/03 16:10:25;;;;;;;0.00;0.00;;;;;;;;;;31250761;28;20253;-76
2024/04/03 16:25:28;;;;;;;0.00;0.00;;;;;;;;;;31290729;28;20235;-76
2024/04/03 16:40:32;;;;;;;0.00;0.00;;;;;;;;;;31254299;28;20264;-75
2024/04/03 16:55:42;;;;;;;0.00;0.00;;;;;;;;;;31267475;28;20242;-76
2024/04/03 17:10:47;;;;;;;0.00;0.00;;;;;;;;;;31226847;28;20250;-76
2024/04/03 17:25:51;;;;;;;0.00;0.00;;;;;;;;;;31250779;28;20224;-76
2024/04/03 17:40:54;;;;;;;0.00;0.00;;;;;;;;;;31247333;28;20373;-76
2024/04/03 17:56:04;;;;;;;0.00;0.00;;;;;;;;;;31247581;28;20309;-76
2024/04/03 18:11:09;;;;;;;0.00;0.00;;;;;;;;;;31231220;28;20581;-76
2024/04/03 18:26:13;;;;;;;0.00;0.00;;;;;;;;;;31248302;28;20271;-75
2024/04/03 18:41:16;;;;;;;0.00;0.00;;;;;;;;;;31254271;28;20600;-75
2024/04/03 18:56:26;;;;;;;0.00;0.00;;;;;;;;;;31282006;28;20227;-75
2024/04/03 19:11:29;;;;;;;0.00;0.00;;;;;;;;;;31342168;28;20227;-76
2024/04/03 19:26:33;;;;;;;0.00;0.00;;;;;;;;;;31329636;28;20231;-76
2024/04/03 19:41:36;;;;;;;0.00;0.00;;;;;;;;;;31333522;28;20731;-75
2024/04/03 19:56:48;;;;;;;0.00;0.00;;;;;;;;;;31311506;28;20223;-76
2024/04/03 20:11:51;;;;;;;0.00;0.00;;;;;;;;;;31238615;28;20326;-75
2024/04/03 20:26:54;;;;;;;0.00;0.00;;;;;;;;;;31233906;28;20930;-76
2024/04/03 20:41:58;;;;;;;0.00;0.00;;;;;;;;;;31217400;28;20629;-76
2024/04/03 20:57:07;;;;;;;0.00;0.00;;;;;;;;;;31227198;28;20230;-75
2024/04/03 21:12:10;;;;;;;0.03;0.03;;;;;;;;;;31317562;28;20231;-75
2024/04/03 21:27:14;;;;;;;0.00;0.00;;;;;;;;;;31320743;28;20230;-76
2024/04/03 21:42:18;;;;;;;0.00;0.00;;;;;;;;;;31318881;28;20738;-75
2024/04/03 21:57:28;;;;;;;0.00;0.00;;;;;;;;;;31316705;28;20377;-75
2024/04/03 22:12:32;;;;;;;0.00;0.00;;;;;;;;;;31316950;28;20234;-77
2024/04/03 22:27:35;;;;;;;0.00;0.00;;;;;;;;;;31314723;28;20243;-77
2024/04/03 22:42:40;;;;;;;0.00;0.00;;;;;;;;;;31307959;28;20254;-76
2024/04/03 22:57:49;;;;;;;0.00;0.00;;;;;;;;;;31315380;28;20231;-75
2024/04/03 23:12:54;;;;;;;0.00;0.00;;;;;;;;;;31299240;28;20725;-75
2024/04/03 23:27:57;;;;;;;0.00;0.00;;;;;;;;;;31324194;28;20227;-76
2024/04/03 23:43:00;;;;;;;0.00;0.00;;;;;;;;;;31316463;28;20566;-76
2024/04/03 23:58:10;;;;;;;0.00;0.00;;;;;;;;;;31326560;28;20695;-76
